sensor_id;sensor_type;location;lat;lon;timestamp;pressure;altitude;pressure_sealevel;temperature;humidity
52625;BME280;38519;52.540;13.410;2023-07-31T00:00:03;98391.59;;;9.81;100.00
52625;BME280;38519;52.540;13.410;2023-07-31T00:02:28;98389.03;;;9.83;100.00
52625;BME280;38519;52.540;13.410;2023-07-31T00:04:54;98383.88;;;9.84;100.00
52625;BME280;38519;52.540;13.410;2023-07-31T00:07:19;98379.50;;;9.83;100.00
52625;BME280;38519;52.540;13.410;2023-07-31T00:09:44;98377.44;;;9.75;100.00
52625;BME280;38519;52.540;13.410;2023-07-31T00:12:09;98380.84;;;9.74;100.00
52625;BME280;38519;52.540;13.410;2023-07-31T00:14:35;98378.19;;;9.72;100.00
52625;BME280;38519;52.540;13.410;2023-07-31T00:17:00;98373.66;;;9.66;100.00
52625;BME280;38519;52.540;13.410;2023-07-31T00:19:27;98372.91;;;9.71;100.00
52625;BME280;38519;52.540;13.410;2023-07-31T00:21:52;98370.69;;;9.80;100.00
52625;BME280;38519;52.540;13.410;2023-07-31T00:24:18;98374.63;;;9.93;100.00
52625;BME280;38519;52.540;13.410;2023-07-31T00:26:43;98372.31;;;10.00;100.00
52625;BME280;38519;52.540;13.410;2023-07-31T00:29:09;98357.69;;;10.04;100.00
52625;BME280;38519;52.540;13.410;2023-07-31T00:31:34;98366.22;;;10.00;100.00
52625;BME280;38519;52.540;13.410;2023-07-31T00:33:59;98360.28;;;10.04;100.00
52625;BME280;38519;52.540;13.410;2023-07-31T00:36:24;98353.44;;;10.08;100.00
52625;BME280;38519;52.540;13.410;2023-07-31T00:38:50;98354.94;;;10.01;100.00
52625;BME280;38519;52.540;13.410;2023-07-31T00:41:15;98360.00;;;9.96;100.00
52625;BME280;38519;52.540;13.410;2023-07-31T00:43:40;98355.81;;;10.00;100.00
52625;BME280;38519;52.540;13.410;2023-07-31T00:46:06;98350.84;;;10.08;100.00
52625;BME280;38519;52.540;13.410;2023-07-31T00:48:31;98346.66;;;10.11;100.00
52625;BME280;38519;52.540;13.410;2023-07-31T00:50:58;98352.97;;;10.18;100.00
52625;BME280;38519;52.540;13.410;2023-07-31T00:53:24;98344.91;;;10.12;100.00
52625;BME280;38519;52.540;13.410;2023-07-31T00:55:50;98353.50;;;10.09;100.00
52625;BME280;38519;52.540;13.410;2023-07-31T00:58:15;98347.06;;;9.99;100.00
52625;BME280;38519;52.540;13.410;2023-07-31T01:00:40;98340.91;;;9.97;100.00
52625;BME280;38519;52.540;13.410;2023-07-31T01:03:06;98344.63;;;10.04;100.00
52625;BME280;38519;52.540;13.410;2023-07-31T01:10:48;98335.19;;;10.08;100.00
52625;BME280;38519;52.540;13.410;2023-07-31T01:13:15;98333.16;;;9.99;100.00
52625;BME280;38519;52.540;13.410;2023-07-31T01:15:40;98334.25;;;10.06;100.00
52625;BME280;38519;52.540;13.410;2023-07-31T01:18:05;98329.41;;;10.15;100.00
52625;BME280;38519;52.540;13.410;2023-07-31T01:20:31;98325.09;;;10.17;100.00
52625;BME280;38519;52.540;13.410;2023-07-31T01:28:20;98328.47;;;10.37;100.00
52625;BME280;38519;52.540;13.410;2023-07-31T01:30:48;98331.97;;;10.37;100.00
52625;BME280;38519;52.540;13.410;2023-07-31T01:33:15;98326.81;;;10.39;100.00
52625;BME280;38519;52.540;13.410;2023-07-31T01:35:44;98320.16;;;10.25;100.00
52625;BME280;38519;52.540;13.410;2023-07-31T01:38:09;98333.75;;;10.16;100.00
52625;BME280;38519;52.540;13.410;2023-07-31T01:40:35;98324.56;;;10.26;100.00
52625;BME280;38519;52.540;13.410;2023-07-31T01:43:00;98318.09;;;10.16;100.00
52625;BME280;38519;52.540;13.410;2023-07-31T01:45:25;98311.03;;;10.12;100.00
52625;BME280;38519;52.540;13.410;2023-07-31T01:47:51;98314.16;;;10.03;100.00
52625;BME280;38519;52.540;13.410;2023-07-31T01:50:16;98316.69;;;10.00;100.00
52625;BME280;38519;52.540;13.410;2023-07-31T01:52:42;98311.56;;;10.03;100.00
52625;BME280;38519;52.540;13.410;2023-07-31T01:55:08;98302.69;;;9.98;100.00
52625;BME280;38519;52.540;13.410;2023-07-31T01:57:33;98302.81;;;10.01;100.00
52625;BME280;38519;52.540;13.410;2023-07-31T01:59:58;98297.59;;;10.01;100.00
52625;BME280;38519;52.540;13.410;2023-07-31T02:02:24;98305.31;;;9.98;100.00
52625;BME280;38519;52.540;13.410;2023-07-31T02:04:49;98294.88;;;9.98;100.00
52625;BME280;38519;52.540;13.410;2023-07-31T02:07:14;98290.66;;;10.01;100.00
52625;BME280;38519;52.540;13.410;2023-07-31T02:09:40;98290.00;;;10.07;100.00
52625;BME280;38519;52.540;13.410;2023-07-31T02:12:05;98294.81;;;10.20;100.00
52625;BME280;38519;52.540;13.410;2023-07-31T02:14:30;98281.47;;;10.11;100.00
52625;BME280;38519;52.540;13.410;2023-07-31T02:16:56;98286.47;;;10.05;100.00
52625;BME280;38519;52.540;13.410;2023-07-31T02:19:21;98288.44;;;10.12;100.00
52625;BME280;38519;52.540;13.410;2023-07-31T02:21:46;98282.34;;;10.12;100.00
52625;BME280;38519;52.540;13.410;2023-07-31T02:24:11;98283.09;;;10.09;100.00
52625;BME280;38519;52.540;13.410;2023-07-31T02:26:37;98272.41;;;10.01;100.00
52625;BME280;38519;52.540;13.410;2023-07-31T02:29:02;98280.28;;;10.03;100.00
52625;BME280;38519;52.540;13.410;2023-07-31T02:31:27;98282.34;;;9.88;100.00
52625;BME280;38519;52.540;13.410;2023-07-31T02:33:54;98279.81;;;9.89;100.00
52625;BME280;38519;52.540;13.410;2023-07-31T02:42:24;98270.25;;;9.90;100.00
52625;BME280;38519;52.540;13.410;2023-07-31T02:44:50;98264.09;;;9.88;100.00
52625;BME280;38519;52.540;13.410;2023-07-31T02:47:20;98262.81;;;10.00;100.00
52625;BME280;38519;52.540;13.410;2023-07-31T02:49:45;98264.38;;;9.95;100.00
52625;BME280;38519;52.540;13.410;2023-07-31T02:52:11;98265.59;;;10.05;100.00
52625;BME280;38519;52.540;13.410;2023-07-31T02:54:36;98261.03;;;9.99;100.00
52625;BME280;38519;52.540;13.410;2023-07-31T02:57:01;98259.94;;;9.93;100.00
52625;BME280;38519;52.540;13.410;2023-07-31T02:59:27;98260.75;;;9.92;100.00
52625;BME280;38519;52.540;13.410;2023-07-31T03:01:53;98247.91;;;9.72;100.00
52625;BME280;38519;52.540;13.410;2023-07-31T03:04:18;98250.03;;;9.82;100.00
52625;BME280;38519;52.540;13.410;2023-07-31T03:06:43;98248.25;;;9.81;100.00
52625;BME280;38519;52.540;13.410;2023-07-31T03:09:08;98258.16;;;9.92;100.00
52625;BME280;38519;52.540;13.410;2023-07-31T03:11:34;98255.13;;;10.03;100.00
52625;BME280;38519;52.540;13.410;2023-07-31T03:13:59;98258.81;;;10.10;100.00
52625;BME280;38519;52.540;13.410;2023-07-31T03:16:24;98255.16;;;10.05;100.00
52625;BME280;38519;52.540;13.410;2023-07-31T03:18:49;98254.00;;;9.97;100.00
52625;BME280;38519;52.540;13.410;2023-07-31T03:21:15;98248.75;;;9.95;100.00
52625;BME280;38519;52.540;13.410;2023-07-31T03:23:40;98253.50;;;10.07;100.00
52625;BME280;38519;52.540;13.410;2023-07-31T03:26:06;98246.31;;;10.01;100.00
52625;BME280;38519;52.540;13.410;2023-07-31T03:28:31;98248.13;;;10.02;100.00
52625;BME280;38519;52.540;13.410;2023-07-31T03:30:57;98243.69;;;10.00;100.00
52625;BME280;38519;52.540;13.410;2023-07-31T03:33:22;98240.56;;;10.10;100.00
52625;BME280;38519;52.540;13.410;2023-07-31T03:35:47;98231.13;;;10.14;100.00
52625;BME280;38519;52.540;13.410;2023-07-31T03:38:12;98231.00;;;10.11;100.00
52625;BME280;38519;52.540;13.410;2023-07-31T03:40:38;98236.44;;;10.17;100.00
52625;BME280;38519;52.540;13.410;2023-07-31T03:43:03;98229.78;;;10.25;100.00
52625;BME280;38519;52.540;13.410;2023-07-31T03:45:28;98229.59;;;10.20;100.00
52625;BME280;38519;52.540;13.410;2023-07-31T03:47:54;98220.19;;;10.24;100.00
52625;BME280;38519;52.540;13.410;2023-07-31T03:50:20;98216.66;;;10.24;100.00
52625;BME280;38519;52.540;13.410;2023-07-31T03:52:45;98220.25;;;10.27;100.00
52625;BME280;38519;52.540;13.410;2023-07-31T03:55:10;98216.56;;;10.20;100.00
52625;BME280;38519;52.540;13.410;2023-07-31T03:57:36;98219.22;;;10.22;100.00
52625;BME280;38519;52.540;13.410;2023-07-31T04:00:01;98224.44;;;10.22;100.00
52625;BME280;38519;52.540;13.410;2023-07-31T04:02:26;98222.78;;;10.24;100.00
52625;BME280;38519;52.540;13.410;2023-07-31T04:04:51;98220.03;;;10.19;100.00
52625;BME280;38519;52.540;13.410;2023-07-31T04:07:17;98220.09;;;10.21;100.00
52625;BME280;38519;52.540;13.410;2023-07-31T04:09:42;98222.69;;;10.21;100.00
52625;BME280;38519;52.540;13.410;2023-07-31T04:12:07;98211.25;;;10.17;100.00
52625;BME280;38519;52.540;13.410;2023-07-31T04:14:32;98205.31;;;10.21;100.00
52625;BME280;38519;52.540;13.410;2023-07-31T04:16:58;98208.78;;;10.22;100.00
52625;BME280;38519;52.540;13.410;2023-07-31T04:19:23;98194.28;;;10.30;100.00
52625;BME280;38519;52.540;13.410;2023-07-31T04:21:49;98200.41;;;10.31;100.00
52625;BME280;38519;52.540;13.410;2023-07-31T04:24:14;98202.16;;;10.32;100.00
52625;BME280;38519;52.540;13.410;2023-07-31T04:26:39;98199.56;;;10.32;100.00
52625;BME280;38519;52.540;13.410;2023-07-31T04:29:04;98193.59;;;10.34;100.00
52625;BME280;38519;52.540;13.410;2023-07-31T04:31:31;98191.88;;;10.35;100.00
52625;BME280;38519;52.540;13.410;2023-07-31T04:33:56;98195.19;;;10.31;100.00
52625;BME280;38519;52.540;13.410;2023-07-31T04:36:21;98197.09;;;10.35;100.00
52625;BME280;38519;52.540;13.410;2023-07-31T04:38:46;98195.19;;;10.31;100.00
52625;BME280;38519;52.540;13.410;2023-07-31T04:41:12;98187.63;;;10.37;100.00
52625;BME280;38519;52.540;13.410;2023-07-31T04:43:38;98194.47;;;10.35;100.00
52625;BME280;38519;52.540;13.410;2023-07-31T04:46:05;98191.16;;;10.39;100.00
52625;BME280;38519;52.540;13.410;2023-07-31T04:48:30;98184.09;;;10.36;100.00
52625;BME280;38519;52.540;13.410;2023-07-31T04:50:55;98178.00;;;10.36;100.00
52625;BME280;38519;52.540;13.410;2023-07-31T04:53:20;98173.47;;;10.32;100.00
52625;BME280;38519;52.540;13.410;2023-07-31T04:55:46;98188.19;;;10.30;100.00
52625;BME280;38519;52.540;13.410;2023-07-31T04:58:11;98188.25;;;10.31;100.00
52625;BME280;38519;52.540;13.410;2023-07-31T05:00:36;98192.72;;;10.34;100.00
52625;BME280;38519;52.540;13.410;2023-07-31T05:03:02;98190.94;;;10.33;100.00
52625;BME280;38519;52.540;13.410;2023-07-31T05:05:27;98195.50;;;10.38;100.00
52625;BME280;38519;52.540;13.410;2023-07-31T05:07:52;98186.03;;;10.42;100.00
52625;BME280;38519;52.540;13.410;2023-07-31T05:10:17;98178.97;;;10.39;100.00
52625;BME280;38519;52.540;13.410;2023-07-31T05:12:43;98180.91;;;10.45;100.00
52625;BME280;38519;52.540;13.410;2023-07-31T05:15:08;98184.47;;;10.47;100.00
52625;BME280;38519;52.540;13.410;2023-07-31T05:17:34;98188.91;;;10.50;100.00
52625;BME280;38519;52.540;13.410;2023-07-31T05:19:59;98180.13;;;10.48;100.00
52625;BME280;38519;52.540;13.410;2023-07-31T05:22:24;98179.66;;;10.60;100.00
52625;BME280;38519;52.540;13.410;2023-07-31T05:24:49;98184.84;;;10.60;100.00
52625;BME280;38519;52.540;13.410;2023-07-31T05:27:15;98180.47;;;10.59;100.00
52625;BME280;38519;52.540;13.410;2023-07-31T05:29:43;98178.00;;;10.63;100.00
52625;BME280;38519;52.540;13.410;2023-07-31T05:32:08;98178.16;;;10.68;100.00
52625;BME280;38519;52.540;13.410;2023-07-31T05:34:35;98183.53;;;10.72;100.00
52625;BME280;38519;52.540;13.410;2023-07-31T05:37:01;98175.53;;;10.68;100.00
52625;BME280;38519;52.540;13.410;2023-07-31T05:39:26;98179.28;;;10.76;100.00
52625;BME280;38519;52.540;13.410;2023-07-31T05:41:53;98176.66;;;10.76;100.00
52625;BME280;38519;52.540;13.410;2023-07-31T05:44:18;98173.09;;;10.72;100.00
52625;BME280;38519;52.540;13.410;2023-07-31T05:46:43;98169.56;;;10.72;100.00
52625;BME280;38519;52.540;13.410;2023-07-31T05:49:09;98168.50;;;10.65;100.00
52625;BME280;38519;52.540;13.410;2023-07-31T05:51:34;98168.69;;;10.71;100.00
52625;BME280;38519;52.540;13.410;2023-07-31T05:53:59;98163.53;;;10.73;100.00
52625;BME280;38519;52.540;13.410;2023-07-31T05:56:24;98165.41;;;10.77;100.00
52625;BME280;38519;52.540;13.410;2023-07-31T05:58:52;98155.88;;;10.79;100.00
52625;BME280;38519;52.540;13.410;2023-07-31T06:01:17;98161.06;;;10.78;100.00
52625;BME280;38519;52.540;13.410;2023-07-31T06:03:42;98157.63;;;10.80;100.00
52625;BME280;38519;52.540;13.410;2023-07-31T06:06:08;98165.50;;;10.82;100.00
52625;BME280;38519;52.540;13.410;2023-07-31T06:08:33;98163.97;;;10.87;100.00
52625;BME280;38519;52.540;13.410;2023-07-31T06:10:58;98164.88;;;10.89;100.00
52625;BME280;38519;52.540;13.410;2023-07-31T06:13:23;98164.53;;;10.78;100.00
52625;BME280;38519;52.540;13.410;2023-07-31T06:15:49;98161.88;;;10.77;100.00
52625;BME280;38519;52.540;13.410;2023-07-31T06:18:14;98154.91;;;10.75;100.00
52625;BME280;38519;52.540;13.410;2023-07-31T06:20:39;98152.50;;;10.83;100.00
52625;BME280;38519;52.540;13.410;2023-07-31T06:23:06;98154.19;;;10.81;100.00
52625;BME280;38519;52.540;13.410;2023-07-31T06:25:31;98161.19;;;10.82;100.00
52625;BME280;38519;52.540;13.410;2023-07-31T06:27:57;98156.13;;;10.87;100.00
52625;BME280;38519;52.540;13.410;2023-07-31T06:30:22;98161.97;;;10.80;100.00
52625;BME280;38519;52.540;13.410;2023-07-31T06:32:47;98155.06;;;10.82;100.00
52625;BME280;38519;52.540;13.410;2023-07-31T06:35:12;98162.13;;;10.84;100.00
52625;BME280;38519;52.540;13.410;2023-07-31T06:37:38;98157.81;;;10.86;100.00
52625;BME280;38519;52.540;13.410;2023-07-31T06:40:05;98160.63;;;10.92;100.00
52625;BME280;38519;52.540;13.410;2023-07-31T06:42:32;98158.06;;;10.94;100.00
52625;BME280;38519;52.540;13.410;2023-07-31T06:44:57;98161.16;;;11.09;100.00
52625;BME280;38519;52.540;13.410;2023-07-31T06:47:22;98157.63;;;11.09;100.00
52625;BME280;38519;52.540;13.410;2023-07-31T06:49:48;98158.63;;;11.13;100.00
52625;BME280;38519;52.540;13.410;2023-07-31T06:52:13;98152.50;;;11.12;100.00
52625;BME280;38519;52.540;13.410;2023-07-31T06:54:39;98159.50;;;11.13;100.00
52625;BME280;38519;52.540;13.410;2023-07-31T06:57:04;98155.06;;;11.10;100.00
52625;BME280;38519;52.540;13.410;2023-07-31T06:59:30;98153.22;;;11.06;100.00
52625;BME280;38519;52.540;13.410;2023-07-31T07:01:55;98154.38;;;11.16;100.00
52625;BME280;38519;52.540;13.410;2023-07-31T07:04:21;98157.09;;;11.19;100.00
52625;BME280;38519;52.540;13.410;2023-07-31T07:06:46;98151.00;;;11.20;100.00
52625;BME280;38519;52.540;13.410;2023-07-31T07:09:12;98149.78;;;11.09;100.00
52625;BME280;38519;52.540;13.410;2023-07-31T07:11:37;98157.59;;;11.07;100.00
52625;BME280;38519;52.540;13.410;2023-07-31T07:14:02;98152.25;;;11.03;100.00
52625;BME280;38519;52.540;13.410;2023-07-31T07:16:28;98154.88;;;11.03;100.00
52625;BME280;38519;52.540;13.410;2023-07-31T07:18:53;98159.91;;;10.97;100.00
52625;BME280;38519;52.540;13.410;2023-07-31T07:21:19;98159.09;;;10.99;100.00
52625;BME280;38519;52.540;13.410;2023-07-31T07:23:44;98157.59;;;11.07;100.00
52625;BME280;38519;52.540;13.410;2023-07-31T07:26:09;98155.44;;;11.23;100.00
52625;BME280;38519;52.540;13.410;2023-07-31T07:28:34;98161.72;;;11.29;100.00
52625;BME280;38519;52.540;13.410;2023-07-31T07:31:02;98160.28;;;11.41;100.00
52625;BME280;38519;52.540;13.410;2023-07-31T07:33:27;98162.94;;;11.42;100.00
52625;BME280;38519;52.540;13.410;2023-07-31T07:35:52;98158.22;;;11.29;100.00
52625;BME280;38519;52.540;13.410;2023-07-31T07:38:18;98147.50;;;11.20;100.00
52625;BME280;38519;52.540;13.410;2023-07-31T07:40:47;98149.53;;;11.28;100.00
52625;BME280;38519;52.540;13.410;2023-07-31T07:43:15;98160.06;;;11.32;100.00
52625;BME280;38519;52.540;13.410;2023-07-31T07:45:41;98152.78;;;11.52;100.00
52625;BME280;38519;52.540;13.410;2023-07-31T07:48:06;98159.09;;;11.60;100.00
52625;BME280;38519;52.540;13.410;2023-07-31T07:50:32;98144.38;;;11.63;100.00
52625;BME280;38519;52.540;13.410;2023-07-31T07:52:59;98144.38;;;11.63;100.00
52625;BME280;38519;52.540;13.410;2023-07-31T07:55:24;98145.88;;;11.55;100.00
52625;BME280;38519;52.540;13.410;2023-07-31T07:57:49;98138.53;;;11.40;100.00
52625;BME280;38519;52.540;13.410;2023-07-31T08:00:15;98141.78;;;11.32;100.00
52625;BME280;38519;52.540;13.410;2023-07-31T08:02:42;98138.75;;;11.18;100.00
52625;BME280;38519;52.540;13.410;2023-07-31T08:05:07;98138.03;;;11.23;100.00
52625;BME280;38519;52.540;13.410;2023-07-31T08:07:33;98139.44;;;11.42;100.00
52625;BME280;38519;52.540;13.410;2023-07-31T08:10:00;98137.03;;;11.50;100.00
52625;BME280;38519;52.540;13.410;2023-07-31T08:12:25;98134.94;;;11.37;100.00
52625;BME280;38519;52.540;13.410;2023-07-31T08:14:51;98129.59;;;11.32;100.00
52625;BME280;38519;52.540;13.410;2023-07-31T08:17:17;98130.38;;;11.29;100.00
52625;BME280;38519;52.540;13.410;2023-07-31T08:19:42;98118.97;;;11.26;100.00
52625;BME280;38519;52.540;13.410;2023-07-31T08:22:07;98115.88;;;11.41;100.00
52625;BME280;38519;52.540;13.410;2023-07-31T08:24:32;98122.25;;;11.51;100.00
52625;BME280;38519;52.540;13.410;2023-07-31T08:26:58;98129.13;;;11.47;100.00
52625;BME280;38519;52.540;13.410;2023-07-31T08:29:23;98120.88;;;11.32;100.00
52625;BME280;38519;52.540;13.410;2023-07-31T08:31:49;98124.19;;;11.26;100.00
52625;BME280;38519;52.540;13.410;2023-07-31T08:34:14;98117.25;;;11.28;100.00
52625;BME280;38519;52.540;13.410;2023-07-31T08:36:39;98116.56;;;11.34;100.00
52625;BME280;38519;52.540;13.410;2023-07-31T08:39:04;98111.34;;;11.34;100.00
52625;BME280;38519;52.540;13.410;2023-07-31T08:41:29;98121.97;;;11.40;100.00
52625;BME280;38519;52.540;13.410;2023-07-31T08:43:56;98124.06;;;11.53;100.00
52625;BME280;38519;52.540;13.410;2023-07-31T08:46:22;98124.53;;;11.70;100.00
52625;BME280;38519;52.540;13.410;2023-07-31T08:48:48;98124.88;;;11.84;100.00
52625;BME280;38519;52.540;13.410;2023-07-31T08:51:14;98128.22;;;11.78;100.00
52625;BME280;38519;52.540;13.410;2023-07-31T08:53:39;98119.78;;;11.57;100.00
52625;BME280;38519;52.540;13.410;2023-07-31T08:56:05;98115.75;;;11.68;100.00
52625;BME280;38519;52.540;13.410;2023-07-31T08:58:31;98119.09;;;11.94;100.00
52625;BME280;38519;52.540;13.410;2023-07-31T09:00:57;98119.47;;;12.10;100.00
52625;BME280;38519;52.540;13.410;2023-07-31T09:03:23;98118.59;;;12.09;100.00
52625;BME280;38519;52.540;13.410;2023-07-31T09:05:50;98124.81;;;12.14;100.00
52625;BME280;38519;52.540;13.410;2023-07-31T09:08:17;98121.31;;;12.14;100.00
52625;BME280;38519;52.540;13.410;2023-07-31T09:10:43;98124.88;;;12.17;100.00
52625;BME280;38519;52.540;13.410;2023-07-31T09:13:09;98115.84;;;12.05;100.00
52625;BME280;38519;52.540;13.410;2023-07-31T09:15:35;98124.34;;;12.31;100.00
52625;BME280;38519;52.540;13.410;2023-07-31T09:18:01;98123.31;;;12.24;100.00
52625;BME280;38519;52.540;13.410;2023-07-31T09:20:26;98126.50;;;12.12;100.00
52625;BME280;38519;52.540;13.410;2023-07-31T09:22:52;98112.75;;;12.21;100.00
52625;BME280;38519;52.540;13.410;2023-07-31T09:25:18;98114.72;;;12.30;100.00
52625;BME280;38519;52.540;13.410;2023-07-31T09:27:51;98117.34;;;12.30;100.00
52625;BME280;38519;52.540;13.410;2023-07-31T09:30:17;98111.78;;;12.16;100.00
52625;BME280;38519;52.540;13.410;2023-07-31T09:32:43;98104.44;;;12.01;100.00
52625;BME280;38519;52.540;13.410;2023-07-31T09:35:21;98114.28;;;11.79;100.00
52625;BME280;38519;52.540;13.410;2023-07-31T09:37:51;98115.56;;;11.62;100.00
52625;BME280;38519;52.540;13.410;2023-07-31T09:40:32;98112.69;;;11.51;100.00
52625;BME280;38519;52.540;13.410;2023-07-31T09:43:04;98110.56;;;11.38;100.00
52625;BME280;38519;52.540;13.410;2023-07-31T09:45:33;98106.06;;;11.32;100.00
52625;BME280;38519;52.540;13.410;2023-07-31T09:48:02;98107.13;;;11.39;100.00
52625;BME280;38519;52.540;13.410;2023-07-31T09:50:28;98105.03;;;11.59;100.00
52625;BME280;38519;52.540;13.410;2023-07-31T09:52:54;98108.91;;;11.73;100.00
52625;BME280;38519;52.540;13.410;2023-07-31T09:55:19;98105.88;;;11.90;100.00
52625;BME280;38519;52.540;13.410;2023-07-31T09:57:46;98111.31;;;11.97;100.00
52625;BME280;38519;52.540;13.410;2023-07-31T10:00:13;98107.00;;;11.99;100.00
52625;BME280;38519;52.540;13.410;2023-07-31T10:02:40;98103.25;;;11.90;100.00
52625;BME280;38519;52.540;13.410;2023-07-31T10:05:06;98098.16;;;11.94;100.00
52625;BME280;38519;52.540;13.410;2023-07-31T10:07:35;98098.41;;;12.05;100.00
52625;BME280;38519;52.540;13.410;2023-07-31T10:10:01;98097.69;;;12.11;100.00
52625;BME280;38519;52.540;13.410;2023-07-31T10:12:27;98095.66;;;12.35;100.00
52625;BME280;38519;52.540;13.410;2023-07-31T10:14:55;98098.63;;;12.49;100.00
52625;BME280;38519;52.540;13.410;2023-07-31T10:17:21;98096.41;;;12.30;100.00
52625;BME280;38519;52.540;13.410;2023-07-31T10:19:46;98095.50;;;12.29;100.00
52625;BME280;38519;52.540;13.410;2023-07-31T10:22:13;98098.06;;;12.26;100.00
52625;BME280;38519;52.540;13.410;2023-07-31T10:24:39;98089.19;;;12.19;100.00
52625;BME280;38519;52.540;13.410;2023-07-31T10:27:05;98094.94;;;12.05;100.00
52625;BME280;38519;52.540;13.410;2023-07-31T10:29:32;98093.34;;;12.11;100.00
52625;BME280;38519;52.540;13.410;2023-07-31T10:31:57;98094.44;;;12.21;100.00
52625;BME280;38519;52.540;13.410;2023-07-31T10:34:23;98089.22;;;12.21;100.00
52625;BME280;38519;52.540;13.410;2023-07-31T10:36:48;98084.06;;;12.24;100.00
52625;BME280;38519;52.540;13.410;2023-07-31T10:39:33;98086.44;;;12.15;100.00
52625;BME280;38519;52.540;13.410;2023-07-31T10:41:59;98079.19;;;12.03;100.00
52625;BME280;38519;52.540;13.410;2023-07-31T10:44:24;98078.59;;;12.15;100.00
52625;BME280;38519;52.540;13.410;2023-07-31T10:46:49;98080.72;;;12.30;100.00
52625;BME280;38519;52.540;13.410;2023-07-31T10:49:22;98074.94;;;12.45;100.00
52625;BME280;38519;52.540;13.410;2023-07-31T10:51:47;98072.09;;;12.73;100.00
52625;BME280;38519;52.540;13.410;2023-07-31T10:54:13;98066.03;;;13.19;100.00
52625;BME280;38519;52.540;13.410;2023-07-31T10:56:40;98055.28;;;13.47;100.00
52625;BME280;38519;52.540;13.410;2023-07-31T10:59:05;98062.81;;;13.78;100.00
52625;BME280;38519;52.540;13.410;2023-07-31T11:01:49;98065.50;;;13.82;100.00
52625;BME280;38519;52.540;13.410;2023-07-31T11:04:15;98056.03;;;13.91;100.00
52625;BME280;38519;52.540;13.410;2023-07-31T11:06:55;98048.28;;;13.98;100.00
52625;BME280;38519;52.540;13.410;2023-07-31T11:09:20;98056.34;;;14.11;100.00
52625;BME280;38519;52.540;13.410;2023-07-31T11:11:45;98069.41;;;14.06;100.00
52625;BME280;38519;52.540;13.410;2023-07-31T11:14:11;98070.22;;;14.03;100.00
52625;BME280;38519;52.540;13.410;2023-07-31T11:16:37;98058.59;;;13.88;100.00
52625;BME280;38519;52.540;13.410;2023-07-31T11:19:08;98044.41;;;13.76;100.00
52625;BME280;38519;52.540;13.410;2023-07-31T11:21:35;98054.16;;;13.82;100.00
52625;BME280;38519;52.540;13.410;2023-07-31T11:24:01;98054.34;;;13.96;100.00
52625;BME280;38519;52.540;13.410;2023-07-31T11:26:27;98061.50;;;14.05;100.00
52625;BME280;38519;52.540;13.410;2023-07-31T11:28:53;98052.09;;;14.17;100.00
52625;BME280;38519;52.540;13.410;2023-07-31T11:31:18;98062.84;;;14.34;100.00
52625;BME280;38519;52.540;13.410;2023-07-31T11:33:44;98051.16;;;14.15;100.00
52625;BME280;38519;52.540;13.410;2023-07-31T11:36:16;98043.19;;;14.09;100.00
52625;BME280;38519;52.540;13.410;2023-07-31T11:38:42;98045.81;;;14.06;100.00
52625;BME280;38519;52.540;13.410;2023-07-31T11:41:07;98059.69;;;14.00;100.00
52625;BME280;38519;52.540;13.410;2023-07-31T11:43:34;98056.13;;;13.97;100.00
52625;BME280;38519;52.540;13.410;2023-07-31T11:46:01;98055.25;;;13.95;100.00
52625;BME280;38519;52.540;13.410;2023-07-31T11:48:33;98050.06;;;14.01;100.00
52625;BME280;38519;52.540;13.410;2023-07-31T11:51:08;98054.59;;;14.10;100.00
52625;BME280;38519;52.540;13.410;2023-07-31T11:56:04;98057.03;;;13.99;100.00
52625;BME280;38519;52.540;13.410;2023-07-31T11:58:30;98052.81;;;14.09;100.00
52625;BME280;38519;52.540;13.410;2023-07-31T12:00:56;98046.88;;;14.19;100.00
52625;BME280;38519;52.540;13.410;2023-07-31T12:03:23;98047.69;;;14.16;100.00
52625;BME280;38519;52.540;13.410;2023-07-31T12:05:49;98052.06;;;14.14;100.00
52625;BME280;38519;52.540;13.410;2023-07-31T12:08:14;98055.53;;;14.13;100.00
52625;BME280;38519;52.540;13.410;2023-07-31T12:10:41;98041.56;;;14.14;100.00
52625;BME280;38519;52.540;13.410;2023-07-31T12:13:10;98049.47;;;14.17;100.00
52625;BME280;38519;52.540;13.410;2023-07-31T12:15:41;98035.38;;;14.12;100.00
52625;BME280;38519;52.540;13.410;2023-07-31T12:18:09;98034.44;;;14.09;100.00
52625;BME280;38519;52.540;13.410;2023-07-31T12:20:34;98036.25;;;14.11;100.00
52625;BME280;38519;52.540;13.410;2023-07-31T12:23:00;98039.13;;;14.30;100.00
52625;BME280;38519;52.540;13.410;2023-07-31T12:25:32;98045.69;;;14.58;100.00
52625;BME280;38519;52.540;13.410;2023-07-31T12:27:57;98037.25;;;14.79;100.00
52625;BME280;38519;52.540;13.410;2023-07-31T12:30:26;98034.56;;;14.76;100.00
52625;BME280;38519;52.540;13.410;2023-07-31T12:32:51;98035.44;;;14.77;100.00
52625;BME280;38519;52.540;13.410;2023-07-31T12:35:18;98031.66;;;14.56;100.00
52625;BME280;38519;52.540;13.410;2023-07-31T12:37:43;98033.63;;;14.71;100.00
52625;BME280;38519;52.540;13.410;2023-07-31T12:40:08;98031.88;;;14.70;100.00
52625;BME280;38519;52.540;13.410;2023-07-31T12:42:34;98028.59;;;14.86;100.00
52625;BME280;38519;52.540;13.410;2023-07-31T12:44:59;98025.97;;;14.86;100.00
52625;BME280;38519;52.540;13.410;2023-07-31T12:47:24;98012.84;;;14.89;100.00
52625;BME280;38519;52.540;13.410;2023-07-31T12:49:50;98009.59;;;15.09;100.00
52625;BME280;38519;52.540;13.410;2023-07-31T12:52:15;98011.47;;;15.22;100.00